Aeroporto :
LOGIN :

Iscrizione | Disclaimer

   EN    FR    IT 

 










Sommario :    VFR   VFR Marginale   IFR   IFR Intensivo   IFR Molto Intensivo
Visibilità : 
Base nubi : 
>= 8 km
>= 3000ft
5 / 8 km
1000 / 3000 ft
1500m / 5 km
500 / 1000 ft
800 / 1500m
200 / 500 ft
< 800m
< 200 ft
Simboli :   Temporali  Nebbia  Neve Forte  Precipitazioni Forti  Vento > 20 kt
SIGMETs :   Varie  Temporali  Ghiacco  Turbolenza  Onda orograficha  Ceneri Vulcaniche






- Altitudine del aeroporto : 46 ft
- Codice IATA : SNN


EINN - Shannon

ULTIMO METAR :
  • 130830Z 27025G37KT 8000 FEW012 SCT018CB BKN040 06/02 Q0985 NOSIG

METARs OBSOLETI :
  • 130800Z 27021KT 9999 FEW014 SCT018CB BKN036 07/01 Q0984 NOSIG
  • 130730Z 27023KT 9999 FEW014 SCT018CB BKN036 07/01 Q0984 NOSIG
  • 130700Z 27022G32KT 9999 FEW014 SCT018CB BKN036 07/01 Q0983 NOSIG
  • 130630Z 27025G36KT 9999 FEW014 SCT018CB BKN040 07/02 Q0983 NOSIG
  • 130600Z 27022G32KT 9999 FEW014 SCT018CB BKN040 07/01 Q0983 NOSIG

TAF TAF EINN
Valido dal 13 a 06 ore il 14 a 06 ore UTC


130500Z 1306/1406 28020G30KT 9999 FEW015 BKN040
TEMPO 1306/1309 29025G45KT -SHRA FEW018CB
BECMG 1314/1316 25010KT
BECMG 1319/1321 26015G25KT
TEMPO 1321/1406 27020G35KT RA FEW018CB



MetMap, La meteo Aeronautica in un colpo d'occhio ! - Copyright ORBIFLY Dicembre 2007 - Disclaimer

ORBIFLY MET'MAP TEAM :

Programmazione e sviluppo : Alexandra Zaïnal
Concezione : Baudouin d'Aumeries
Aiuto per la programmazione : Marc-Olivier Méhu
Supporto tecnico e logistico : Manuel Goepfert
Aiuto per la traduzione : Arnaldo La Scala

Contatto : metmap@orbifly.com




FONTI E CREDITI :

   NOAA